Time;durP1;ratioP1;P1;durP2;ratioP2;P2;SDS_P1;SDS_P2;PMS_P1;PMS_P2;Temp;Humidity;BMP_temperature;BMP_pressure;BME280_temperature;BME280_humidity;BME280_pressure;Samples;Min_cycle;Max_cycle;Signal;HPM_P1;HPM_P2
2023/12/14 00:01:29;;;;;;;89.10;47.15;;;;;;;5.33;100.00;98415.94;4928660;29;20044;-82
2023/12/14 00:03:54;;;;;;;76.22;40.85;;;;;;;5.31;100.00;98423.75;4920125;29;20024;-82
2023/12/14 00:06:19;;;;;;;80.15;41.88;;;;;;;5.27;100.00;98429.97;4921900;29;20040;-82
2023/12/14 00:08:46;;;;;;;81.78;41.45;;;;;;;5.23;100.00;98438.75;4916002;28;20062;-82
2023/12/14 00:11:14;;;;;;;85.60;45.13;;;;;;;5.03;100.00;98398.31;4959852;29;20440;-82
2023/12/14 00:13:40;;;;;;;79.80;43.00;;;;;;;5.05;100.00;98403.41;4957383;29;20098;-82
2023/12/14 00:16:07;;;;;;;70.80;40.28;;;;;;;5.23;100.00;98437.00;4959835;29;20035;-82
2023/12/14 00:18:33;;;;;;;76.10;39.35;;;;;;;5.24;100.00;98427.50;4959446;29;20149;-82
2023/12/14 00:20:58;;;;;;;71.90;38.65;;;;;;;5.30;100.00;98437.53;4959982;28;20114;-82
2023/12/14 00:23:24;;;;;;;78.50;41.38;;;;;;;5.40;100.00;98449.16;4959649;28;20027;-82
2023/12/14 00:25:50;;;;;;;77.80;41.08;;;;;;;5.36;100.00;98444.19;4959600;29;20055;-82
2023/12/14 00:28:15;;;;;;;82.28;41.65;;;;;;;5.25;100.00;98447.25;4942400;29;20408;-82
2023/12/14 00:30:42;;;;;;;65.03;36.35;;;;;;;5.23;100.00;98451.66;4928074;29;20503;-82
2023/12/14 00:33:08;;;;;;;68.03;36.22;;;;;;;4.88;100.00;98404.97;4959350;29;20078;-82
2023/12/14 00:35:33;;;;;;;73.85;38.35;;;;;;;4.97;100.00;98420.09;4959812;29;20413;-82
2023/12/14 00:37:58;;;;;;;68.60;36.88;;;;;;;4.94;100.00;98421.94;4960077;28;20380;-82
2023/12/14 00:40:24;;;;;;;65.95;38.72;;;;;;;5.18;100.00;98459.59;4959915;28;20027;-82
2023/12/14 00:42:50;;;;;;;72.55;38.90;;;;;;;5.00;100.00;98419.09;4957620;29;20059;-82
2023/12/14 00:45:15;;;;;;;72.13;39.58;;;;;;;4.99;100.00;98422.59;4959631;29;20110;-82
2023/12/14 00:47:41;;;;;;;83.72;44.30;;;;;;;5.33;100.00;98472.72;4958022;29;20027;-82
2023/12/14 00:50:06;;;;;;;69.75;38.67;;;;;;;5.11;100.00;98434.13;4959562;29;20046;-82
2023/12/14 00:52:32;;;;;;;75.85;40.15;;;;;;;5.38;100.00;98468.19;4959690;28;20038;-82
2023/12/14 00:54:57;;;;;;;78.30;43.80;;;;;;;5.27;100.00;98453.19;4959406;28;20081;-82
2023/12/14 00:57:23;;;;;;;83.78;40.28;;;;;;;5.36;100.00;98488.94;4959400;28;20106;-82
2023/12/14 00:59:48;;;;;;;78.65;39.85;;;;;;;5.30;100.00;98496.09;4959212;29;20038;-83
2023/12/14 01:02:13;;;;;;;78.55;40.38;;;;;;;5.17;100.00;98469.97;4959489;28;20030;-82
2023/12/14 01:04:39;;;;;;;81.05;40.40;;;;;;;5.23;100.00;98482.63;4937464;29;20106;-82
2023/12/14 01:07:04;;;;;;;74.47;39.85;;;;;;;5.31;100.00;98495.19;4937953;29;20123;-83
2023/12/14 01:09:30;;;;;;;72.43;39.05;;;;;;;5.32;100.00;98515.78;4937369;29;20207;-82
2023/12/14 01:11:55;;;;;;;74.47;39.60;;;;;;;5.30;100.00;98503.84;4937909;29;20526;-82
2023/12/14 01:14:20;;;;;;;75.30;38.53;;;;;;;5.33;100.00;98504.53;4935839;29;20557;-82
2023/12/14 01:16:46;;;;;;;75.93;39.80;;;;;;;5.02;100.00;98476.66;4896393;29;20051;-82
2023/12/14 01:19:11;;;;;;;73.35;40.28;;;;;;;4.99;100.00;98472.44;4896554;29;20040;-82
2023/12/14 01:21:37;;;;;;;71.15;37.38;;;;;;;5.18;100.00;98494.88;4896475;29;20460;-83
2023/12/14 01:24:02;;;;;;;77.25;40.10;;;;;;;5.18;100.00;98488.00;4896674;29;20041;-82
2023/12/14 01:26:27;;;;;;;78.07;39.53;;;;;;;5.26;100.00;98505.72;4881047;29;20120;-82
2023/12/14 01:28:53;;;;;;;77.93;38.90;;;;;;;5.25;100.00;98514.38;4896624;29;20041;-82
2023/12/14 01:31:18;;;;;;;79.28;41.97;;;;;;;4.91;100.00;98464.19;4896788;29;20068;-82
2023/12/14 01:33:45;;;;;;;72.40;38.65;;;;;;;5.12;100.00;98502.91;4877502;29;20055;-82
2023/12/14 01:36:11;;;;;;;76.50;40.40;;;;;;;5.33;100.00;98526.94;4877724;29;20060;-82
2023/12/14 01:38:36;;;;;;;77.00;40.00;;;;;;;5.23;100.00;98500.69;4877632;29;20487;-82
2023/12/14 01:41:02;;;;;;;73.15;37.53;;;;;;;5.29;100.00;98515.06;4877887;29;20036;-82
2023/12/14 01:43:28;;;;;;;73.75;37.88;;;;;;;5.17;100.00;98493.19;4877885;29;20447;-82
2023/12/14 01:45:53;;;;;;;75.07;38.03;;;;;;;5.29;100.00;98515.91;4877481;29;20032;-83
2023/12/14 01:48:18;;;;;;;78.00;39.60;;;;;;;5.28;100.00;98506.50;4905099;29;20049;-82
2023/12/14 01:50:43;;;;;;;86.65;42.65;;;;;;;5.33;100.00;98508.88;4915177;29;20043;-82
2023/12/14 01:53:09;;;;;;;86.72;40.40;;;;;;;5.10;100.00;98482.31;4914916;29;20078;-82
2023/12/14 01:55:34;;;;;;;84.90;41.33;;;;;;;5.20;100.00;98509.41;4914996;29;20032;-82
2023/12/14 01:58:01;;;;;;;81.43;39.55;;;;;;;5.23;100.00;98509.28;4915424;29;20042;-82
2023/12/14 02:00:54;;;;;;;81.63;42.47;;;;;;;5.21;100.00;98505.91;4915181;29;20046;-82
2023/12/14 02:03:19;;;;;;;86.53;40.58;;;;;;;5.03;100.00;98491.22;4915176;29;20032;-82
2023/12/14 02:05:44;;;;;;;77.97;41.05;;;;;;;5.08;100.00;98486.69;4952350;29;20436;-82
2023/12/14 02:08:10;;;;;;;84.28;40.30;;;;;;;5.15;100.00;98503.59;4940670;29;20043;-82
2023/12/14 02:10:35;;;;;;;81.13;38.13;;;;;;;5.10;100.00;98495.22;4955753;29;20035;-82
2023/12/14 02:13:02;;;;;;;92.82;40.50;;;;;;;4.96;100.00;98482.06;4956247;29;20035;-82
2023/12/14 02:15:27;;;;;;;84.05;40.70;;;;;;;4.95;100.00;98506.19;4960726;29;20035;-82
2023/12/14 02:17:53;;;;;;;87.20;42.15;;;;;;;5.17;100.00;98530.19;4975336;29;20087;-82
2023/12/14 02:20:18;;;;;;;95.45;43.08;;;;;;;5.04;100.00;98507.53;4974713;29;20038;-83
2023/12/14 02:22:50;;;;;;;86.00;42.17;;;;;;;5.11;100.00;98519.28;4974658;29;20031;-82
2023/12/14 02:25:16;;;;;;;88.50;42.35;;;;;;;5.13;100.00;98510.56;4972223;28;20031;-82
2023/12/14 02:27:42;;;;;;;87.88;41.47;;;;;;;5.06;100.00;98511.75;4970580;29;20110;-82
2023/12/14 02:30:08;;;;;;;87.40;42.05;;;;;;;5.08;100.00;98515.09;4971803;28;20039;-82
2023/12/14 02:32:33;;;;;;;86.75;43.58;;;;;;;5.13;100.00;98528.63;4961064;29;20027;-82
2023/12/14 02:34:59;;;;;;;90.30;42.50;;;;;;;5.26;100.00;98539.25;4954973;29;20028;-82
2023/12/14 02:37:25;;;;;;;99.40;43.63;;;;;;;5.14;100.00;98506.22;4968875;28;20043;-82
2023/12/14 02:39:51;;;;;;;99.28;46.45;;;;;;;5.18;100.00;98531.00;4954623;29;20031;-82
2023/12/14 02:42:16;;;;;;;99.75;47.83;;;;;;;5.13;100.00;98522.63;4954746;29;20074;-82
2023/12/14 02:44:43;;;;;;;93.55;43.53;;;;;;;5.14;100.00;98525.16;4954987;29;20420;-82
2023/12/14 02:47:08;;;;;;;94.03;47.50;;;;;;;5.31;100.00;98562.31;4954809;29;20035;-82
2023/12/14 02:49:33;;;;;;;96.60;46.60;;;;;;;5.15;100.00;98556.97;4954994;29;20047;-82
2023/12/14 02:51:59;;;;;;;94.95;46.75;;;;;;;4.96;100.00;98531.09;4954757;29;20082;-82
2023/12/14 02:54:24;;;;;;;109.95;52.10;;;;;;;4.93;100.00;98542.38;4954500;29;20082;-82
2023/12/14 02:56:50;;;;;;;99.93;46.78;;;;;;;5.00;100.00;98558.44;4954497;29;20389;-82
2023/12/14 02:59:15;;;;;;;92.13;45.80;;;;;;;5.03;100.00;98566.06;4954343;29;20077;-82
2023/12/14 03:01:41;;;;;;;92.85;46.60;;;;;;;4.75;100.00;98541.38;4953051;29;20046;-82
2023/12/14 03:04:07;;;;;;;87.50;43.88;;;;;;;4.85;100.00;98575.41;4954476;29;20031;-82
2023/12/14 03:06:32;;;;;;;89.63;42.22;;;;;;;4.63;100.00;98538.47;4954670;29;20031;-82
2023/12/14 03:08:57;;;;;;;94.95;46.13;;;;;;;4.54;100.00;98523.34;4954198;29;20146;-82
2023/12/14 03:11:23;;;;;;;95.32;43.13;;;;;;;4.71;100.00;98565.63;4953965;29;20110;-82
2023/12/14 03:13:49;;;;;;;96.03;45.40;;;;;;;4.44;100.00;98512.59;4954148;29;20068;-82
2023/12/14 03:16:16;;;;;;;92.07;43.35;;;;;;;4.86;100.00;98595.13;4954630;29;20086;-82
2023/12/14 03:18:43;;;;;;;92.00;44.40;;;;;;;4.86;100.00;98595.13;4954083;29;20380;-82
2023/12/14 03:21:10;;;;;;;88.68;42.00;;;;;;;4.73;100.00;98568.16;4953950;29;20037;-82
2023/12/14 03:23:36;;;;;;;87.57;38.63;;;;;;;4.71;100.00;98582.84;4954152;29;20038;-82
2023/12/14 03:26:01;;;;;;;87.35;40.72;;;;;;;4.83;100.00;98600.41;4952453;29;20027;-82
2023/12/14 03:28:27;;;;;;;85.72;39.70;;;;;;;4.53;100.00;98543.16;4954527;29;20135;-82
2023/12/14 03:30:53;;;;;;;80.90;37.88;;;;;;;4.93;100.00;98609.47;4953737;29;20058;-82
2023/12/14 03:33:18;;;;;;;86.25;41.22;;;;;;;4.83;100.00;98604.72;4936676;29;20031;-82
2023/12/14 03:35:44;;;;;;;91.47;41.45;;;;;;;4.54;100.00;98572.34;4953745;29;20492;-82
2023/12/14 03:38:09;;;;;;;89.53;41.70;;;;;;;4.58;100.00;98576.50;4953376;28;20126;-82
2023/12/14 03:40:35;;;;;;;92.90;41.72;;;;;;;4.51;100.00;98565.59;4953584;29;20034;-82
2023/12/14 03:43:01;;;;;;;83.82;39.80;;;;;;;4.65;100.00;98591.66;4952424;29;20392;-82
2023/12/14 03:45:27;;;;;;;81.07;39.15;;;;;;;4.70;100.00;98614.69;4953645;29;20043;-82
2023/12/14 03:47:52;;;;;;;86.22;40.67;;;;;;;4.71;100.00;98627.53;4952296;29;20028;-82
2023/12/14 03:50:17;;;;;;;91.47;42.50;;;;;;;4.70;100.00;98625.00;4952354;29;20027;-82
2023/12/14 03:52:43;;;;;;;93.43;42.47;;;;;;;4.68;100.00;98621.66;4953337;29;20038;-82
2023/12/14 03:55:09;;;;;;;92.13;42.17;;;;;;;4.67;100.00;98632.84;4931566;29;20032;-82
2023/12/14 03:57:34;;;;;;;89.13;40.00;;;;;;;4.48;100.00;98599.22;4932128;29;20460;-82
2023/12/14 03:59:59;;;;;;;90.43;40.40;;;;;;;4.30;100.00;98597.31;4931900;29;20047;-82
2023/12/14 04:02:26;;;;;;;88.05;39.90;;;;;;;4.40;100.00;98617.56;4932103;29;20041;-82
2023/12/14 04:04:52;;;;;;;93.88;40.30;;;;;;;4.32;100.00;98603.28;4915990;29;20031;-82
2023/12/14 04:07:17;;;;;;;85.68;40.63;;;;;;;4.49;100.00;98642.16;4931781;29;20128;-82
2023/12/14 04:09:44;;;;;;;95.13;42.97;;;;;;;4.36;100.00;98610.84;4931612;29;20052;-82
2023/12/14 04:12:09;;;;;;;89.53;41.33;;;;;;;4.70;100.00;98669.69;4932202;29;20058;-82
2023/12/14 04:14:35;;;;;;;87.63;40.83;;;;;;;4.68;100.00;98653.44;4931935;29;20040;-82
2023/12/14 04:17:00;;;;;;;80.85;38.47;;;;;;;4.72;100.00;98672.25;4915737;29;20138;-82
2023/12/14 04:19:26;;;;;;;85.68;37.55;;;;;;;4.67;100.00;98674.97;4931873;29;20043;-82
2023/12/14 04:21:51;;;;;;;82.03;38.25;;;;;;;4.36;100.00;98613.41;4931882;29;20062;-82
2023/12/14 04:24:17;;;;;;;78.00;38.95;;;;;;;4.64;100.00;98662.22;4931789;29;20063;-82
2023/12/14 04:26:42;;;;;;;82.82;37.60;;;;;;;4.62;100.00;98664.00;4944730;29;20043;-82
2023/12/14 04:29:07;;;;;;;75.75;37.55;;;;;;;4.52;100.00;98654.94;4935911;29;20123;-82
2023/12/14 04:31:34;;;;;;;75.45;36.38;;;;;;;4.78;100.00;98695.19;4953446;29;20058;-82
2023/12/14 04:34:00;;;;;;;79.50;37.33;;;;;;;4.56;100.00;98653.09;4953159;29;20023;-82
2023/12/14 04:36:25;;;;;;;71.95;35.63;;;;;;;4.60;100.00;98660.66;4967374;28;20497;-82
2023/12/14 04:38:50;;;;;;;73.10;37.40;;;;;;;4.80;100.00;98689.97;4952939;29;20508;-82
2023/12/14 04:41:16;;;;;;;72.75;35.38;;;;;;;4.87;100.00;98709.50;4953018;29;20461;-82
2023/12/14 04:43:41;;;;;;;74.35;37.97;;;;;;;4.75;100.00;98695.31;4953564;29;20034;-82
2023/12/14 04:46:06;;;;;;;80.75;36.65;;;;;;;4.55;100.00;98679.75;4953464;29;20035;-82
2023/12/14 04:48:32;;;;;;;74.28;35.80;;;;;;;4.63;100.00;98686.28;4953334;28;20509;-82
2023/12/14 04:50:57;;;;;;;75.75;35.03;;;;;;;4.71;100.00;98701.47;4954324;29;20399;-82
2023/12/14 04:53:23;;;;;;;76.10;34.90;;;;;;;4.69;100.00;98698.13;4956693;29;20521;-82
2023/12/14 04:55:49;;;;;;;82.18;40.60;;;;;;;4.54;100.00;98673.75;4956482;29;20027;-82
2023/12/14 04:58:14;;;;;;;75.47;35.05;;;;;;;4.57;100.00;98668.50;4957102;29;20036;-82
2023/12/14 05:00:40;;;;;;;78.47;37.60;;;;;;;4.50;100.00;98665.28;4956790;29;20122;-82
2023/12/14 05:03:05;;;;;;;81.93;36.78;;;;;;;4.76;100.00;98709.88;4956378;29;20102;-82
2023/12/14 05:05:31;;;;;;;70.03;34.08;;;;;;;4.55;100.00;98684.91;4956392;29;20031;-82
2023/12/14 05:07:56;;;;;;;66.82;34.38;;;;;;;4.54;100.00;98678.06;4956208;29;20027;-82
2023/12/14 05:10:22;;;;;;;76.13;35.63;;;;;;;4.75;100.00;98721.94;4956269;29;20063;-82
2023/12/14 05:12:47;;;;;;;72.75;34.78;;;;;;;4.81;100.00;98725.22;4955122;29;20102;-82
2023/12/14 05:15:12;;;;;;;66.65;33.55;;;;;;;4.80;100.00;98715.78;4956591;29;20520;-82
2023/12/14 05:17:38;;;;;;;73.20;36.35;;;;;;;4.81;100.00;98728.63;4956539;29;20026;-82
2023/12/14 05:20:08;;;;;;;64.97;31.85;;;;;;;4.78;100.00;98730.47;4956123;29;20066;-82
2023/12/14 05:22:34;;;;;;;67.65;34.13;;;;;;;4.84;100.00;98730.22;4956339;29;20477;-82
2023/12/14 05:25:00;;;;;;;62.22;30.55;;;;;;;4.66;100.00;98704.25;4956179;29;20477;-82
2023/12/14 05:27:26;;;;;;;62.47;30.80;;;;;;;4.91;100.00;98747.16;4956094;29;20034;-82
2023/12/14 05:29:51;;;;;;;59.55;29.83;;;;;;;4.91;100.00;98747.16;4956004;29;20035;-82
2023/12/14 05:32:17;;;;;;;58.42;30.55;;;;;;;4.81;100.00;98738.13;4955707;29;20032;-82
2023/12/14 05:34:42;;;;;;;56.03;30.08;;;;;;;4.55;100.00;98698.66;4954948;29;20031;-82
2023/12/14 05:37:07;;;;;;;61.08;30.70;;;;;;;4.72;100.00;98737.56;4955603;29;20062;-82
2023/12/14 05:39:33;;;;;;;58.47;29.55;;;;;;;4.84;100.00;98774.09;4955812;29;20039;-82
2023/12/14 05:41:58;;;;;;;58.13;30.98;;;;;;;4.71;100.00;98758.22;4954546;29;20027;-82
2023/12/14 05:44:24;;;;;;;58.72;30.33;;;;;;;4.61;100.00;98754.31;4956028;29;20058;-82
2023/12/14 05:46:50;;;;;;;59.35;30.05;;;;;;;4.54;100.00;98758.84;4955718;29;20473;-82
2023/12/14 05:49:15;;;;;;;63.45;32.90;;;;;;;4.67;100.00;98783.28;4955959;29;20507;-82
2023/12/14 05:51:41;;;;;;;62.80;30.95;;;;;;;4.66;100.00;98778.19;4955816;29;20023;-82
2023/12/14 05:54:06;;;;;;;78.53;39.45;;;;;;;4.59;100.00;98769.84;4955453;29;20392;-82
2023/12/14 05:56:32;;;;;;;67.80;33.85;;;;;;;4.71;100.00;98791.75;4954629;29;20066;-82
2023/12/14 05:58:57;;;;;;;73.63;35.92;;;;;;;4.65;100.00;98779.94;4955370;29;20388;-82
2023/12/14 06:01:24;;;;;;;66.25;35.05;;;;;;;4.79;100.00;98802.66;4955295;28;20149;-82
2023/12/14 06:03:50;;;;;;;72.53;34.55;;;;;;;4.70;100.00;98797.81;4955341;29;20031;-82
2023/12/14 06:06:16;;;;;;;71.22;34.05;;;;;;;4.78;100.00;98803.56;4954248;29;20369;-82
2023/12/14 06:08:42;;;;;;;73.82;36.60;;;;;;;4.73;100.00;98805.47;4955509;29;20051;-82
2023/12/14 06:11:08;;;;;;;92.70;40.67;;;;;;;4.62;100.00;98790.38;4937911;29;20030;-82
2023/12/14 06:13:33;;;;;;;83.15;39.00;;;;;;;4.59;100.00;98795.63;4917188;29;20050;-82
2023/12/14 06:15:59;;;;;;;79.80;38.60;;;;;;;4.67;100.00;98813.41;4914408;29;20119;-82
2023/12/14 06:18:27;;;;;;;83.85;38.08;;;;;;;4.47;100.00;98780.63;4914625;29;20044;-82
2023/12/14 06:20:52;;;;;;;86.53;40.22;;;;;;;4.56;100.00;98802.66;4933207;29;20040;-82
2023/12/14 06:23:18;;;;;;;89.90;40.97;;;;;;;4.65;100.00;98818.63;4933745;29;20066;-82
2023/12/14 06:25:44;;;;;;;81.65;38.85;;;;;;;4.68;100.00;98823.69;4933515;29;20043;-82
2023/12/14 06:28:17;;;;;;;86.20;38.97;;;;;;;4.63;100.00;98822.97;4933272;29;20044;-82
2023/12/14 06:30:43;;;;;;;82.80;36.88;;;;;;;4.40;100.00;98792.03;4933465;29;20050;-82
2023/12/14 06:33:08;;;;;;;87.20;41.90;;;;;;;4.65;100.00;98825.53;4932971;29;20402;-82
2023/12/14 06:35:40;;;;;;;81.03;39.83;;;;;;;4.52;100.00;98811.41;4933602;29;20047;-82
2023/12/14 06:38:06;;;;;;;86.60;40.28;;;;;;;4.54;100.00;98814.75;4933225;29;20559;-82
2023/12/14 06:40:31;;;;;;;85.43;39.88;;;;;;;4.58;100.00;98842.09;4952331;29;20035;-82
2023/12/14 06:42:57;;;;;;;91.22;42.10;;;;;;;4.42;100.00;98837.47;4952043;29;20385;-82
2023/12/14 06:45:23;;;;;;;85.80;39.95;;;;;;;4.47;100.00;98851.06;4952131;29;20035;-82
2023/12/14 06:47:49;;;;;;;80.28;38.65;;;;;;;4.54;100.00;98868.91;4952321;29;20086;-82
2023/12/14 06:50:15;;;;;;;79.00;38.65;;;;;;;4.35;100.00;98840.34;4952449;29;20047;-82
2023/12/14 06:52:41;;;;;;;79.80;39.53;;;;;;;4.61;100.00;98871.22;4952765;29;20102;-83
2023/12/14 06:55:10;;;;;;;85.60;40.30;;;;;;;4.51;100.00;98872.44;4920737;29;20039;-83
2023/12/14 06:57:37;;;;;;;77.22;38.33;;;;;;;4.47;100.00;98873.44;4952950;29;20035;-82
2023/12/14 07:00:06;;;;;;;71.25;36.10;;;;;;;4.47;100.00;98860.56;4951927;29;20570;-82
2023/12/14 07:02:32;;;;;;;76.47;38.25;;;;;;;4.49;100.00;98882.78;4952696;29;20388;-83
2023/12/14 07:04:57;;;;;;;66.18;36.22;;;;;;;4.37;100.00;98872.88;4952293;29;20029;-83
2023/12/14 07:07:23;;;;;;;63.58;35.47;;;;;;;4.46;100.00;98885.47;4952488;29;20027;-83
2023/12/14 07:09:48;;;;;;;65.40;33.70;;;;;;;4.32;100.00;98861.91;4952317;29;20059;-82
2023/12/14 07:12:14;;;;;;;62.65;32.67;;;;;;;4.22;100.00;98858.78;4953182;28;20035;-83
2023/12/14 07:14:40;;;;;;;57.67;31.80;;;;;;;4.49;100.00;98905.16;4953167;29;20118;-82
2023/12/14 07:17:05;;;;;;;62.63;31.73;;;;;;;4.20;100.00;98859.72;4954484;29;20039;-82
2023/12/14 07:19:31;;;;;;;56.45;29.27;;;;;;;4.30;100.00;98874.00;4968814;28;20031;-83
2023/12/14 07:21:57;;;;;;;55.78;30.27;;;;;;;4.42;100.00;98909.66;4954320;29;20031;-83
2023/12/14 07:24:22;;;;;;;52.67;27.52;;;;;;;4.16;100.00;98886.50;4953079;29;20038;-83
2023/12/14 07:26:47;;;;;;;48.38;29.00;;;;;;;4.35;100.00;98923.69;4954031;29;20023;-83
2023/12/14 07:29:13;;;;;;;53.20;30.05;;;;;;;4.21;100.00;98900.06;4953093;29;20159;-83
2023/12/14 07:31:38;;;;;;;57.58;32.33;;;;;;;4.32;100.00;98922.94;4953621;29;20027;-83
2023/12/14 07:34:04;;;;;;;53.92;30.52;;;;;;;4.07;100.00;98891.94;4953713;29;20030;-82
2023/12/14 07:36:32;;;;;;;50.28;30.35;;;;;;;4.30;100.00;98930.72;4954815;29;20108;-82
2023/12/14 07:39:00;;;;;;;57.28;31.17;;;;;;;4.05;100.00;98906.63;4954617;29;20031;-83
2023/12/14 07:41:29;;;;;;;52.38;28.85;;;;;;;4.04;100.00;98908.34;4937170;29;20496;-84
2023/12/14 07:43:55;;;;;;;55.85;30.52;;;;;;;4.10;100.00;98939.09;4953046;29;20114;-83
2023/12/14 07:46:22;;;;;;;64.28;32.17;;;;;;;4.04;100.00;98910.09;4953929;29;20024;-83
2023/12/14 07:48:47;;;;;;;61.10;31.60;;;;;;;4.18;100.00;98944.84;4954008;29;20117;-83
2023/12/14 07:51:13;;;;;;;66.60;34.63;;;;;;;4.22;100.00;98949.00;4953444;28;20448;-82
2023/12/14 07:53:38;;;;;;;64.00;34.22;;;;;;;4.02;100.00;98928.19;4953976;29;20027;-83
2023/12/14 07:56:04;;;;;;;54.08;30.33;;;;;;;4.05;100.00;98940.97;4953506;29;20102;-83
2023/12/14 07:58:30;;;;;;;58.17;33.20;;;;;;;4.05;100.00;98940.13;4953821;29;20535;-82
2023/12/14 08:00:55;;;;;;;60.80;37.13;;;;;;;4.28;100.00;98975.47;4953380;29;20058;-83
2023/12/14 08:03:20;;;;;;;60.13;35.72;;;;;;;4.28;100.00;98975.47;4953587;29;20039;-83
2023/12/14 08:05:47;;;;;;;54.15;30.45;;;;;;;4.12;100.00;98954.50;4936522;29;20082;-83
2023/12/14 08:08:12;;;;;;;53.53;29.52;;;;;;;4.25;100.00;98974.66;4953485;29;20094;-83
2023/12/14 08:10:37;;;;;;;52.70;29.17;;;;;;;4.18;100.00;98965.47;4954087;29;20473;-83
2023/12/14 08:13:03;;;;;;;48.35;26.75;;;;;;;3.75;100.00;98898.97;4954589;29;20532;-83
2023/12/14 08:15:28;;;;;;;51.53;27.25;;;;;;;4.32;100.00;98990.78;4955240;29;20442;-83
2023/12/14 08:17:54;;;;;;;46.53;26.13;;;;;;;4.33;100.00;98992.47;4954832;29;20054;-83
2023/12/14 08:20:21;;;;;;;52.10;27.17;;;;;;;4.13;100.00;98964.78;4955847;29;20094;-83
2023/12/14 08:22:47;;;;;;;49.85;27.65;;;;;;;4.39;100.00;99006.94;4964189;29;20039;-83
2023/12/14 08:25:17;;;;;;;44.95;27.25;;;;;;;4.10;100.00;98962.28;4969880;28;20027;-84
2023/12/14 08:27:43;;;;;;;45.55;26.80;;;;;;;4.16;100.00;98979.28;4967275;29;20035;-83
2023/12/14 08:30:10;;;;;;;53.75;29.20;;;;;;;4.43;100.00;99018.81;4965675;29;20039;-83
2023/12/14 08:32:36;;;;;;;50.15;29.42;;;;;;;4.34;100.00;99013.94;4956126;29;20454;-83
2023/12/14 08:35:01;;;;;;;47.13;28.95;;;;;;;4.26;100.00;99001.31;4957150;29;20027;-82
2023/12/14 08:37:26;;;;;;;56.10;30.83;;;;;;;4.39;100.00;99025.81;4957093;29;20035;-83
2023/12/14 08:39:52;;;;;;;53.47;31.33;;;;;;;4.42;100.00;99038.59;4957081;29;20027;-83
2023/12/14 08:42:17;;;;;;;56.55;32.38;;;;;;;4.37;100.00;99031.91;4956899;29;20484;-83
2023/12/14 08:44:42;;;;;;;54.95;30.80;;;;;;;4.38;100.00;99025.84;4957320;29;20028;-83
2023/12/14 08:47:09;;;;;;;52.88;31.15;;;;;;;4.44;100.00;99048.88;4956470;29;20115;-83
2023/12/14 08:49:35;;;;;;;56.58;31.98;;;;;;;4.37;100.00;99045.63;4956947;29;20146;-83
2023/12/14 08:52:00;;;;;;;55.72;30.08;;;;;;;4.15;100.00;99032.56;4957012;29;20036;-83
2023/12/14 08:54:26;;;;;;;56.33;31.05;;;;;;;4.30;100.00;99043.28;4939182;29;20027;-83
2023/12/14 08:56:52;;;;;;;59.47;33.22;;;;;;;4.48;100.00;99069.34;4955558;29;20500;-83
2023/12/14 08:59:19;;;;;;;60.25;32.08;;;;;;;4.47;100.00;99072.84;4954911;29;20034;-83
2023/12/14 09:01:44;;;;;;;62.15;32.58;;;;;;;4.38;100.00;99062.81;4939591;29;20035;-83
2023/12/14 09:04:09;;;;;;;67.95;37.85;;;;;;;3.90;100.00;99019.56;4955102;29;20031;-83
2023/12/14 09:06:35;;;;;;;54.08;29.42;;;;;;;3.98;100.00;99048.53;4954289;29;20374;-83
2023/12/14 09:09:00;;;;;;;74.85;48.08;;;;;;;3.95;100.00;99047.75;4954564;29;20543;-83
2023/12/14 09:11:25;;;;;;;47.17;27.77;;;;;;;4.14;100.00;99084.16;4956229;29;20070;-83
2023/12/14 09:13:51;;;;;;;38.42;23.17;;;;;;;4.15;100.00;99093.56;4955280;29;20035;-83
2023/12/14 09:16:17;;;;;;;39.92;23.00;;;;;;;4.13;100.00;99092.75;4956355;29;20038;-83
2023/12/14 09:18:42;;;;;;;48.17;26.80;;;;;;;4.03;100.00;99075.88;4956607;29;20035;-83
2023/12/14 09:21:08;;;;;;;42.92;26.35;;;;;;;4.04;100.00;99080.16;4956143;29;20027;-83
2023/12/14 09:23:33;;;;;;;42.35;24.90;;;;;;;4.02;100.00;99099.97;4956489;29;20031;-83
2023/12/14 09:25:59;;;;;;;51.10;27.40;;;;;;;3.98;100.00;99100.06;4956381;29;20038;-83
2023/12/14 09:28:25;;;;;;;46.70;27.15;;;;;;;4.10;100.00;99113.50;4953402;29;20086;-83
2023/12/14 09:30:51;;;;;;;53.92;29.65;;;;;;;3.99;100.00;99108.63;4953743;29;20405;-83
2023/12/14 09:33:16;;;;;;;57.55;32.65;;;;;;;3.98;100.00;99115.53;4953381;29;20148;-83
2023/12/14 09:35:42;;;;;;;63.35;33.15;;;;;;;3.99;100.00;99108.63;4953007;28;20035;-83
2023/12/14 09:38:08;;;;;;;53.63;30.52;;;;;;;3.98;100.00;99115.53;4953520;29;20035;-83
2023/12/14 09:40:34;;;;;;;53.25;30.10;;;;;;;3.85;100.00;99083.25;4937635;29;20028;-83
2023/12/14 09:43:00;;;;;;;57.13;32.20;;;;;;;4.14;100.00;99123.66;4953783;29;20131;-83
2023/12/14 09:45:29;;;;;;;57.28;30.42;;;;;;;4.08;100.00;99121.25;4953059;29;20496;-83
2023/12/14 09:48:00;;;;;;;54.90;30.80;;;;;;;4.11;100.00;99131.47;4953617;29;20031;-83
2023/12/14 09:50:25;;;;;;;56.03;30.53;;;;;;;4.10;100.00;99118.63;4953695;29;20071;-82
2023/12/14 09:52:51;;;;;;;44.75;27.50;;;;;;;4.07;100.00;99119.56;4937356;28;20275;-82
2023/12/14 09:55:17;;;;;;;52.70;27.55;;;;;;;4.01;100.00;99114.59;4952988;29;20078;-82
2023/12/14 09:57:43;;;;;;;46.75;27.98;;;;;;;3.82;100.00;99110.84;4953884;29;20045;-82
2023/12/14 10:00:13;;;;;;;53.55;29.02;;;;;;;3.77;100.00;99098.09;4954953;29;20039;-83
2023/12/14 10:02:41;;;;;;;54.92;30.85;;;;;;;4.10;100.00;99134.09;4955735;29;20468;-83
2023/12/14 10:05:15;;;;;;;64.07;32.97;;;;;;;4.02;100.00;99134.31;4955507;29;20027;-83
2023/12/14 10:07:44;;;;;;;54.35;31.80;;;;;;;4.03;100.00;99128.28;4955519;29;20039;-82
2023/12/14 10:10:10;;;;;;;58.47;32.90;;;;;;;4.08;100.00;99120.41;4955011;29;20138;-82
2023/12/14 10:12:56;;;;;;;61.45;32.40;;;;;;;4.21;100.00;99150.09;4955401;29;20511;-83
2023/12/14 10:15:24;;;;;;;55.50;32.90;;;;;;;4.18;100.00;99138.16;4954510;29;20046;-82
2023/12/14 10:17:55;;;;;;;92.70;37.58;;;;;;;4.11;100.00;99118.59;4954044;28;20035;-82
2023/12/14 10:20:26;;;;;;;53.80;30.45;;;;;;;4.22;100.00;99136.34;4937760;29;20027;-82
2023/12/14 10:22:52;;;;;;;53.50;32.38;;;;;;;4.22;100.00;99134.59;4955587;29;20028;-82
2023/12/14 10:25:19;;;;;;;52.63;29.30;;;;;;;4.41;100.00;99155.50;4954850;29;20370;-83
2023/12/14 10:27:48;;;;;;;56.50;32.13;;;;;;;4.16;100.00;99106.41;4955435;29;20035;-82
2023/12/14 10:30:15;;;;;;;94.07;35.63;;;;;;;4.32;100.00;99122.28;4937656;29;20561;-82
2023/12/14 10:32:41;;;;;;;49.80;28.98;;;;;;;4.58;100.00;99155.00;4955316;29;20480;-82
2023/12/14 10:35:07;;;;;;;57.83;30.80;;;;;;;4.53;100.00;99141.41;4954553;29;20094;-82
2023/12/14 10:37:36;;;;;;;94.90;60.90;;;;;;;4.38;100.00;99114.38;4955090;29;20485;-83
2023/12/14 10:40:05;;;;;;;109.43;66.35;;;;;;;4.48;100.00;99148.44;4954919;29;20023;-83
2023/12/14 10:42:31;;;;;;;99.05;65.15;;;;;;;4.45;100.00;99171.75;4954923;29;20106;-83
2023/12/14 10:44:59;;;;;;;92.68;66.65;;;;;;;4.18;100.00;99114.13;4954696;29;20038;-82
2023/12/14 10:47:25;;;;;;;53.47;32.47;;;;;;;4.41;100.00;99170.13;4954228;28;20027;-83
2023/12/14 10:49:51;;;;;;;57.97;32.67;;;;;;;4.31;100.00;99167.00;4954691;29;20031;-83
2023/12/14 10:52:19;;;;;;;57.17;32.97;;;;;;;4.13;100.00;99152.91;4954750;29;20023;-82
2023/12/14 10:54:47;;;;;;;51.33;31.83;;;;;;;4.21;100.00;99171.59;4954749;28;20039;-83
2023/12/14 10:57:12;;;;;;;67.43;31.52;;;;;;;4.12;100.00;99142.63;4954500;29;20027;-83
2023/12/14 10:59:38;;;;;;;50.83;30.25;;;;;;;4.19;100.00;99160.44;4954784;29;20384;-82
2023/12/14 11:02:11;;;;;;;52.58;31.50;;;;;;;4.26;100.00;99168.88;4954509;29;20501;-83
2023/12/14 11:04:58;;;;;;;49.95;29.83;;;;;;;4.47;100.00;99199.19;4953467;29;20046;-82
2023/12/14 11:07:49;;;;;;;44.88;27.40;;;;;;;4.38;100.00;99193.44;4954156;29;20106;-82
2023/12/14 11:10:21;;;;;;;45.03;27.83;;;;;;;4.10;100.00;99160.72;4913444;29;20055;-82
2023/12/14 11:13:06;;;;;;;47.53;27.02;;;;;;;4.01;100.00;99145.53;4913653;29;20131;-82